Time;durP1;ratioP1;P1;durP2;ratioP2;P2;SDS_P1;SDS_P2;PMS_P1;PMS_P2;Temp;Humidity;BMP_temperature;BMP_pressure;BME280_temperature;BME280_humidity;BME280_pressure;Samples;Min_cycle;Max_cycle;Signal;HPM_P1;HPM_P2
2022/09/24 00:01:26;;;;;;;35.17;28.95;;;14.00;99.90;;;;;;5115363;27;39141;-59
2022/09/24 00:03:54;;;;;;;40.80;30.77;;;14.00;99.90;;;;;;5115184;27;37528;-59
2022/09/24 00:06:22;;;;;;;38.15;28.85;;;14.00;99.90;;;;;;5116097;27;37854;-58
2022/09/24 00:08:53;;;;;;;36.70;27.92;;;14.00;99.90;;;;;;5116194;27;37644;-58
2022/09/24 00:11:20;;;;;;;40.03;31.77;;;13.90;99.90;;;;;;5115575;27;36623;-58
2022/09/24 00:13:48;;;;;;;37.47;29.77;;;14.00;99.90;;;;;;5115761;27;38578;-58
2022/09/24 00:16:19;;;;;;;38.83;30.33;;;13.90;99.90;;;;;;5115087;27;37287;-58
2022/09/24 00:18:47;;;;;;;42.10;32.80;;;14.00;99.90;;;;;;5114693;27;38625;-58
2022/09/24 00:21:16;;;;;;;43.15;34.28;;;14.00;99.90;;;;;;5116193;27;37445;-58
2022/09/24 00:23:44;;;;;;;40.33;33.95;;;14.00;99.90;;;;;;5115806;27;37647;-58
2022/09/24 00:28:59;;;;;;;36.17;31.95;;;14.00;99.90;;;;;;5088496;27;39004;-58
2022/09/24 00:31:28;;;;;;;42.75;34.20;;;14.00;99.90;;;;;;5113801;27;36628;-58
2022/09/24 00:33:55;;;;;;;40.72;31.88;;;13.90;99.90;;;;;;5116165;27;38718;-58
2022/09/24 00:36:23;;;;;;;42.78;33.13;;;14.00;99.90;;;;;;5115740;27;34857;-58
2022/09/24 00:38:51;;;;;;;40.35;33.63;;;14.00;99.90;;;;;;5115247;27;38313;-58
2022/09/24 00:41:20;;;;;;;42.13;32.70;;;14.00;99.90;;;;;;5114918;27;38041;-58
2022/09/24 00:43:49;;;;;;;42.63;34.90;;;14.00;99.90;;;;;;5115161;27;38453;-58
2022/09/24 00:46:21;;;;;;;40.88;34.67;;;14.00;99.90;;;;;;5115092;27;37653;-58
2022/09/24 00:48:52;;;;;;;38.83;32.20;;;14.00;99.90;;;;;;5115591;27;37291;-58
2022/09/24 00:51:23;;;;;;;38.20;33.03;;;14.00;99.90;;;;;;5116261;27;20173;-58
2022/09/24 00:53:56;;;;;;;40.22;32.85;;;14.00;99.90;;;;;;5115067;27;37649;-58
2022/09/24 00:56:24;;;;;;;42.53;36.17;;;14.00;99.90;;;;;;5115713;27;37280;-58
2022/09/24 00:58:55;;;;;;;44.63;37.70;;;14.00;99.90;;;;;;5114094;27;37870;-58
2022/09/24 01:01:24;;;;;;;44.08;36.17;;;14.00;99.90;;;;;;5114311;27;38409;-59
2022/09/24 01:03:55;;;;;;;46.42;37.05;;;14.00;99.90;;;;;;5115496;27;36223;-59
2022/09/24 01:06:23;;;;;;;43.88;35.28;;;14.00;99.90;;;;;;5115605;27;37623;-60
2022/09/24 01:08:50;;;;;;;45.15;37.08;;;14.00;99.90;;;;;;5114370;27;38809;-59
2022/09/24 01:11:30;;;;;;;47.78;36.22;;;14.00;99.90;;;;;;5114656;27;38840;-59
2022/09/24 01:14:22;;;;;;;48.92;39.10;;;14.00;99.90;;;;;;5114457;27;37801;-59
2022/09/24 01:16:58;;;;;;;49.97;37.15;;;14.00;99.90;;;;;;5112234;27;38365;-59
2022/09/24 01:19:59;;;;;;;50.58;39.15;;;14.00;99.90;;;;;;5115300;27;37517;-59
2022/09/24 01:22:40;;;;;;;47.10;38.72;;;14.00;99.90;;;;;;5110408;27;36430;-59
2022/09/24 01:25:15;;;;;;;46.17;38.55;;;14.00;99.90;;;;;;5114811;27;37145;-59
2022/09/24 01:27:57;;;;;;;52.17;40.47;;;14.00;99.90;;;;;;5114916;27;37666;-59
2022/09/24 01:30:30;;;;;;;53.60;39.90;;;14.00;99.90;;;;;;5113722;27;37574;-59
2022/09/24 01:33:00;;;;;;;;;;;14.10;99.90;;;;;;5115495;27;37309;-59
2022/09/24 01:35:33;;;;;;;48.10;38.03;;;14.00;99.90;;;;;;5118673;27;38256;-59
2022/09/24 01:38:03;;;;;;;50.35;39.92;;;14.00;99.90;;;;;;5118945;27;36834;-59
2022/09/24 01:40:31;;;;;;;52.58;41.38;;;14.00;99.90;;;;;;5118205;27;38338;-59
2022/09/24 01:43:03;;;;;;;52.10;40.92;;;14.00;99.90;;;;;;5118147;27;37803;-59
2022/09/24 01:45:32;;;;;;;51.60;40.22;;;14.00;99.90;;;;;;5118127;27;38329;-59
2022/09/24 01:48:01;;;;;;;51.72;40.78;;;14.00;99.90;;;;;;5118264;27;36732;-59
2022/09/24 01:50:31;;;;;;;51.20;40.83;;;14.00;99.90;;;;;;5118369;27;37101;-59
2022/09/24 01:53:06;;;;;;;51.85;40.42;;;14.00;99.90;;;;;;5117665;27;37811;-59
2022/09/24 01:55:38;;;;;;;50.88;40.83;;;14.00;99.90;;;;;;5118511;27;38492;-59
2022/09/24 01:58:10;;;;;;;53.40;42.30;;;14.00;99.90;;;;;;5118253;27;37238;-58
2022/09/24 02:00:43;;;;;;;56.05;41.60;;;14.00;99.90;;;;;;5119427;27;37395;-59
2022/09/24 02:03:15;;;;;;;49.83;40.13;;;14.00;99.90;;;;;;5118367;27;37721;-58
2022/09/24 02:05:48;;;;;;;54.45;42.70;;;14.00;99.90;;;;;;5118503;27;37521;-57
2022/09/24 02:08:19;;;;;;;51.03;41.13;;;14.00;99.90;;;;;;5119146;27;36722;-59
2022/09/24 02:10:54;;;;;;;57.38;45.03;;;14.00;99.90;;;;;;5118509;27;37435;-59
2022/09/24 02:13:25;;;;;;;50.47;39.38;;;14.00;99.90;;;;;;5118218;27;37690;-59
2022/09/24 02:15:57;;;;;;;63.75;45.92;;;14.00;99.90;;;;;;5118182;27;38167;-58
2022/09/24 02:18:31;;;;;;;52.45;43.08;;;14.10;99.90;;;;;;5117416;27;36573;-58
2022/09/24 02:21:02;;;;;;;47.10;37.38;;;14.00;99.90;;;;;;5117795;27;36301;-57
2022/09/24 02:23:35;;;;;;;47.50;39.55;;;14.00;99.90;;;;;;5117175;27;37837;-59
2022/09/24 02:26:05;;;;;;;44.53;37.65;;;14.10;99.90;;;;;;5118097;27;39113;-58
2022/09/24 02:28:34;;;;;;;43.95;36.50;;;14.10;99.90;;;;;;5117832;27;37698;-59
2022/09/24 02:31:06;;;;;;;43.03;34.58;;;14.00;99.90;;;;;;5117479;27;38489;-59
2022/09/24 02:36:23;;;;;;;30.92;26.67;;;14.10;99.90;;;;;;5117111;27;39597;-58
2022/09/24 02:38:51;;;;;;;26.85;23.00;;;14.00;99.90;;;;;;5117523;27;37671;-58
2022/09/24 02:41:22;;;;;;;25.38;22.08;;;14.00;99.90;;;;;;5117811;27;37817;-58
2022/09/24 02:43:49;;;;;;;24.77;20.88;;;14.00;99.90;;;;;;5117640;27;37815;-58
2022/09/24 02:46:18;;;;;;;23.50;20.55;;;14.10;99.90;;;;;;5116202;27;37362;-58
2022/09/24 02:48:45;;;;;;;28.55;24.75;;;14.10;99.90;;;;;;5117896;27;36572;-58
2022/09/24 02:51:13;;;;;;;35.22;29.38;;;14.00;99.90;;;;;;5117187;27;37629;-58
2022/09/24 02:53:40;;;;;;;35.15;30.33;;;14.00;99.90;;;;;;5117649;27;37858;-58
2022/09/24 02:56:09;;;;;;;31.98;27.70;;;14.00;99.90;;;;;;5117305;27;36188;-58
2022/09/24 02:58:37;;;;;;;30.35;26.25;;;14.10;99.90;;;;;;5117101;27;36672;-58
2022/09/24 03:01:05;;;;;;;34.42;30.08;;;14.10;99.90;;;;;;5117798;27;37252;-58
2022/09/24 03:03:34;;;;;;;44.33;34.50;;;14.10;99.90;;;;;;5117685;27;37778;-58
2022/09/24 03:06:01;;;;;;;41.20;34.63;;;14.00;99.90;;;;;;5117254;27;39460;-58
2022/09/24 03:08:30;;;;;;;46.58;37.00;;;14.10;99.90;;;;;;5117411;27;37234;-59
2022/09/24 03:10:57;;;;;;;46.40;36.15;;;14.00;99.90;;;;;;5117248;27;38454;-58
2022/09/24 03:13:24;;;;;;;44.00;34.35;;;14.10;99.90;;;;;;5117473;27;38190;-58
2022/09/24 03:15:51;;;;;;;38.35;29.58;;;14.00;99.90;;;;;;5117299;27;37453;-58
2022/09/24 03:18:19;;;;;;;32.83;28.33;;;14.00;99.90;;;;;;5117113;27;36796;-58
2022/09/24 03:20:56;;;;;;;32.05;27.17;;;14.00;99.90;;;;;;5117651;27;38076;-58
2022/09/24 03:23:23;;;;;;;30.05;24.92;;;14.00;99.90;;;;;;5116666;27;37949;-58
2022/09/24 03:25:51;;;;;;;28.30;23.83;;;14.00;99.90;;;;;;5116937;27;38077;-58
2022/09/24 03:28:18;;;;;;;34.00;27.75;;;14.00;99.90;;;;;;5117903;27;38475;-58
2022/09/24 03:31:01;;;;;;;26.05;22.80;;;14.00;99.90;;;;;;5116435;27;38056;-58
2022/09/24 03:33:30;;;;;;;29.17;23.63;;;14.10;99.90;;;;;;5116280;27;38313;-58
2022/09/24 03:36:00;;;;;;;29.35;24.73;;;14.00;99.90;;;;;;5117218;27;37493;-57
2022/09/24 03:38:28;;;;;;;26.67;22.83;;;14.10;99.90;;;;;;5117129;27;36881;-58
2022/09/24 03:40:55;;;;;;;31.70;25.73;;;14.10;99.90;;;;;;5116542;27;36214;-59
2022/09/24 03:43:23;;;;;;;33.08;25.85;;;14.10;99.90;;;;;;5116031;27;37514;-58
2022/09/24 03:45:50;;;;;;;25.25;22.33;;;14.10;99.90;;;;;;5117023;27;37433;-58
2022/09/24 03:48:19;;;;;;;27.75;24.58;;;14.00;99.90;;;;;;5115487;27;35568;-58
2022/09/24 03:50:46;;;;;;;30.02;24.08;;;14.10;99.90;;;;;;5116914;27;37425;-58
2022/09/24 03:53:16;;;;;;;28.23;23.55;;;14.00;99.90;;;;;;5116003;27;37702;-58
2022/09/24 03:55:45;;;;;;;28.58;23.40;;;14.10;99.90;;;;;;5116296;27;39935;-58
2022/09/24 03:58:13;;;;;;;30.92;24.20;;;14.00;99.90;;;;;;5116531;27;37519;-58
2022/09/24 04:00:41;;;;;;;32.35;24.05;;;14.10;99.90;;;;;;5116590;27;36386;-58
2022/09/24 04:03:08;;;;;;;29.63;22.83;;;14.10;99.90;;;;;;5115656;27;37940;-58
2022/09/24 04:05:36;;;;;;;30.88;24.92;;;14.10;99.90;;;;;;5117065;27;37319;-58
2022/09/24 04:08:05;;;;;;;33.80;23.27;;;14.10;99.90;;;;;;5116363;27;35636;-58
2022/09/24 04:10:33;;;;;;;27.80;21.30;;;14.10;99.90;;;;;;5115908;27;37452;-58
2022/09/24 04:13:01;;;;;;;31.55;23.05;;;14.10;99.90;;;;;;5116020;27;39186;-59
2022/09/24 04:15:29;;;;;;;27.67;21.08;;;14.10;99.90;;;;;;5116318;27;37302;-58
2022/09/24 04:17:58;;;;;;;28.20;18.42;;;14.10;99.90;;;;;;5115932;27;36720;-58
2022/09/24 04:20:27;;;;;;;26.90;17.92;;;14.00;99.90;;;;;;5115891;27;36848;-58
2022/09/24 04:22:56;;;;;;;30.35;18.20;;;14.10;99.90;;;;;;5116250;27;37680;-58
2022/09/24 04:25:26;;;;;;;21.48;13.30;;;14.10;99.90;;;;;;5115704;27;37422;-58
2022/09/24 04:27:55;;;;;;;18.40;9.52;;;14.00;99.90;;;;;;5115985;27;36884;-59
2022/09/24 04:30:24;;;;;;;17.45;9.05;;;14.00;99.90;;;;;;5115845;27;37381;-58
2022/09/24 04:32:52;;;;;;;17.55;6.40;;;14.00;99.90;;;;;;5115120;27;38741;-59
2022/09/24 04:35:20;;;;;;;15.93;6.03;;;14.00;99.90;;;;;;5116676;27;37919;-59
2022/09/24 04:37:47;;;;;;;12.75;3.20;;;14.00;99.90;;;;;;5115948;27;37639;-59
2022/09/24 04:40:15;;;;;;;11.60;2.67;;;14.00;99.90;;;;;;5115763;27;38174;-58
2022/09/24 04:42:45;;;;;;;13.15;2.40;;;14.00;99.90;;;;;;5116546;27;38767;-58
2022/09/24 04:45:16;;;;;;;14.02;2.05;;;14.00;99.90;;;;;;5116151;27;37365;-58
2022/09/24 04:47:43;;;;;;;11.30;1.85;;;14.00;99.90;;;;;;5115616;27;36967;-59
2022/09/24 04:50:11;;;;;;;12.32;2.03;;;14.00;99.90;;;;;;5116122;27;37383;-58
2022/09/24 04:52:39;;;;;;;9.82;2.15;;;14.00;99.90;;;;;;5115844;27;36430;-58
2022/09/24 04:55:07;;;;;;;29.45;3.00;;;13.90;99.90;;;;;;5115787;27;37967;-58
2022/09/24 04:57:35;;;;;;;15.43;2.03;;;14.00;99.90;;;;;;5115278;27;37016;-59
2022/09/24 05:00:04;;;;;;;9.85;2.00;;;13.90;99.90;;;;;;5115714;27;37697;-58
2022/09/24 05:02:33;;;;;;;11.25;2.20;;;13.90;99.90;;;;;;5115185;27;39106;-58
2022/09/24 05:05:00;;;;;;;11.13;1.70;;;13.90;99.90;;;;;;5115708;27;37998;-58
2022/09/24 05:07:27;;;;;;;11.00;2.17;;;13.90;99.90;;;;;;5115282;27;37538;-59
2022/09/24 05:09:54;;;;;;;12.93;2.53;;;13.90;99.90;;;;;;5115493;27;38387;-59
2022/09/24 05:12:22;;;;;;;13.73;2.30;;;13.90;99.90;;;;;;5114542;27;38642;-59
2022/09/24 05:14:49;;;;;;;11.98;2.33;;;13.90;99.90;;;;;;5114646;27;36222;-59
2022/09/24 05:17:16;;;;;;;13.68;2.42;;;13.90;99.90;;;;;;5115525;27;36645;-59
2022/09/24 05:19:45;;;;;;;15.75;2.35;;;13.90;99.90;;;;;;5114823;27;38480;-59
2022/09/24 05:22:12;;;;;;;11.75;2.17;;;13.90;99.90;;;;;;5114566;27;37967;-59
2022/09/24 05:24:39;;;;;;;13.13;2.67;;;13.90;99.90;;;;;;5115353;27;37006;-59
2022/09/24 05:27:10;;;;;;;10.77;1.83;;;13.90;99.90;;;;;;5114651;27;37330;-59
2022/09/24 05:29:39;;;;;;;15.80;2.25;;;13.90;99.90;;;;;;5114476;27;37673;-59
2022/09/24 05:32:07;;;;;;;14.85;3.20;;;13.90;99.90;;;;;;5114600;27;37761;-59
2022/09/24 05:34:34;;;;;;;10.68;2.33;;;13.90;99.90;;;;;;5114915;27;38194;-58
2022/09/24 05:37:04;;;;;;;13.00;1.95;;;13.90;99.90;;;;;;5114397;27;37365;-58
2022/09/24 05:39:31;;;;;;;10.55;1.95;;;13.80;99.90;;;;;;5114772;27;37433;-59
2022/09/24 05:41:59;;;;;;;11.38;3.00;;;13.90;99.90;;;;;;5114480;27;37457;-58
2022/09/24 05:44:26;;;;;;;9.00;2.00;;;13.90;99.90;;;;;;5114200;27;39107;-58
2022/09/24 05:46:54;;;;;;;15.05;2.05;;;13.90;99.90;;;;;;5114428;27;37504;-59
2022/09/24 05:49:21;;;;;;;13.32;1.55;;;13.80;99.90;;;;;;5114546;27;38510;-59
2022/09/24 05:51:49;;;;;;;10.27;1.70;;;13.80;99.90;;;;;;5113865;27;38955;-59
2022/09/24 05:54:18;;;;;;;7.25;1.40;;;13.80;99.90;;;;;;5114863;27;37232;-58
2022/09/24 05:56:46;;;;;;;12.98;2.70;;;13.90;99.90;;;;;;5114465;27;37708;-59
2022/09/24 05:59:13;;;;;;;13.18;1.75;;;13.80;99.90;;;;;;5113429;27;37566;-59
2022/09/24 06:01:40;;;;;;;11.13;1.92;;;13.80;99.90;;;;;;5114504;27;38318;-59
2022/09/24 06:04:09;;;;;;;10.73;1.95;;;13.90;99.90;;;;;;5114429;27;37781;-59
2022/09/24 06:06:37;;;;;;;13.07;2.00;;;13.90;99.90;;;;;;5114272;27;36439;-59
2022/09/24 06:09:04;;;;;;;10.30;2.20;;;13.90;99.90;;;;;;5114260;27;37502;-59
2022/09/24 06:11:34;;;;;;;9.02;1.60;;;13.90;99.90;;;;;;5114410;27;38710;-59
2022/09/24 06:14:03;;;;;;;11.82;2.05;;;13.90;99.90;;;;;;5114151;27;36348;-59
2022/09/24 06:16:33;;;;;;;9.45;1.50;;;13.90;99.90;;;;;;5113892;27;36717;-58
2022/09/24 06:19:00;;;;;;;10.52;1.92;;;13.90;99.90;;;;;;5114596;27;38092;-58
2022/09/24 06:21:27;;;;;;;17.92;2.03;;;13.90;99.90;;;;;;5117152;27;37644;-58
2022/09/24 06:23:55;;;;;;;10.68;1.70;;;13.90;99.90;;;;;;5117936;27;36187;-58
2022/09/24 06:26:24;;;;;;;15.27;2.70;;;13.90;99.90;;;;;;5117673;27;37203;-58
2022/09/24 06:28:53;;;;;;;6.90;1.75;;;13.90;99.90;;;;;;5117167;27;37563;-59
2022/09/24 06:31:21;;;;;;;12.23;2.22;;;13.90;99.90;;;;;;5117226;27;38958;-59
2022/09/24 06:33:48;;;;;;;8.00;2.33;;;13.90;99.90;;;;;;5116869;27;37579;-59
2022/09/24 06:36:15;;;;;;;13.05;3.45;;;13.90;99.90;;;;;;5117578;27;37523;-59
2022/09/24 06:38:44;;;;;;;17.92;5.05;;;14.00;99.90;;;;;;5118121;27;36266;-59
2022/09/24 06:41:11;;;;;;;16.42;3.08;;;14.00;99.90;;;;;;5117268;27;37665;-59
2022/09/24 06:43:38;;;;;;;15.20;2.78;;;14.00;99.90;;;;;;5117255;27;38487;-59
2022/09/24 06:46:07;;;;;;;12.70;2.45;;;14.00;99.90;;;;;;5117112;27;37331;-59
2022/09/24 06:48:36;;;;;;;12.68;1.98;;;14.00;99.90;;;;;;5117219;27;39204;-59
2022/09/24 06:51:05;;;;;;;15.57;2.30;;;14.00;99.90;;;;;;5117377;27;38125;-59
2022/09/24 06:53:32;;;;;;;13.40;2.47;;;14.00;99.90;;;;;;5117276;27;37282;-59
2022/09/24 06:56:02;;;;;;;10.40;2.05;;;14.00;99.90;;;;;;5117290;27;36552;-59
2022/09/24 06:58:29;;;;;;;13.82;2.63;;;14.00;99.90;;;;;;5116478;27;37516;-59
2022/09/24 07:01:00;;;;;;;16.00;3.03;;;14.00;99.90;;;;;;5117639;27;37560;-59
2022/09/24 07:03:30;;;;;;;11.75;2.30;;;14.00;99.90;;;;;;5117079;27;36443;-58
2022/09/24 07:06:01;;;;;;;13.52;1.90;;;14.00;99.90;;;;;;5117679;27;36691;-58
2022/09/24 07:08:29;;;;;;;11.13;2.22;;;14.10;99.90;;;;;;5116912;27;38289;-58
2022/09/24 07:10:56;;;;;;;12.38;2.38;;;14.10;99.90;;;;;;5117359;27;38223;-58
2022/09/24 07:13:24;;;;;;;11.57;2.20;;;14.10;99.90;;;;;;5117413;27;37565;-58
2022/09/24 07:15:52;;;;;;;18.10;2.90;;;14.10;99.90;;;;;;5117212;27;37629;-58
2022/09/24 07:18:20;;;;;;;18.33;3.22;;;14.10;99.90;;;;;;5116447;27;38943;-58
2022/09/24 07:20:53;;;;;;;15.20;2.88;;;14.10;99.90;;;;;;5116321;27;38123;-58
2022/09/24 07:23:20;;;;;;;14.48;3.20;;;14.20;99.90;;;;;;5116684;27;37437;-58
2022/09/24 07:25:48;;;;;;;23.27;5.50;;;14.20;99.90;;;;;;5116784;27;37761;-59
2022/09/24 07:28:15;;;;;;;15.88;2.40;;;14.20;99.90;;;;;;5116759;27;37757;-59
2022/09/24 07:30:43;;;;;;;14.73;2.92;;;14.20;99.90;;;;;;5116323;27;38028;-59
2022/09/24 07:33:10;;;;;;;20.95;3.13;;;14.20;99.90;;;;;;5116170;27;37620;-59
2022/09/24 07:35:39;;;;;;;18.63;4.63;;;14.20;99.90;;;;;;5117285;27;35332;-59
2022/09/24 07:38:10;;;;;;;14.35;2.50;;;14.30;99.90;;;;;;5117445;27;37137;-59
2022/09/24 07:40:38;;;;;;;12.93;2.65;;;14.30;99.90;;;;;;5116270;27;38055;-59
2022/09/24 07:43:05;;;;;;;11.05;2.20;;;14.30;99.90;;;;;;5116287;27;36653;-59
2022/09/24 07:45:33;;;;;;;12.18;2.67;;;14.30;99.90;;;;;;5116928;27;37697;-59
2022/09/24 07:48:02;;;;;;;14.75;2.40;;;14.30;99.90;;;;;;5115291;27;36575;-60
2022/09/24 07:50:31;;;;;;;14.65;2.10;;;14.30;99.90;;;;;;5115502;27;37376;-59
2022/09/24 07:52:59;;;;;;;11.43;2.22;;;14.30;99.90;;;;;;5116969;27;38619;-59
2022/09/24 07:55:28;;;;;;;11.38;1.73;;;14.30;99.90;;;;;;5116078;27;37843;-59
2022/09/24 07:57:56;;;;;;;15.77;2.60;;;14.30;99.90;;;;;;5116030;27;37689;-59
2022/09/24 08:00:25;;;;;;;13.23;2.30;;;14.30;99.90;;;;;;5115848;27;37602;-58
2022/09/24 08:02:52;;;;;;;11.05;1.92;;;14.30;99.90;;;;;;5114027;27;38406;-59
2022/09/24 08:05:20;;;;;;;9.45;2.15;;;14.30;99.90;;;;;;5115859;27;35408;-59
2022/09/24 08:07:52;;;;;;;13.73;2.25;;;14.30;99.90;;;;;;5115287;27;38703;-59
2022/09/24 08:10:19;;;;;;;16.95;3.22;;;14.30;99.90;;;;;;5115097;27;38389;-59
2022/09/24 08:12:48;;;;;;;11.30;2.00;;;14.30;99.90;;;;;;5115190;27;37768;-58
2022/09/24 08:15:16;;;;;;;11.55;2.30;;;14.30;99.90;;;;;;5115212;27;37514;-58
2022/09/24 08:17:43;;;;;;;9.13;1.60;;;14.20;99.90;;;;;;5114808;27;38557;-58
2022/09/24 08:20:11;;;;;;;9.68;1.95;;;14.20;99.90;;;;;;5114484;27;36687;-58
2022/09/24 08:22:39;;;;;;;15.43;1.95;;;14.30;99.90;;;;;;5114483;27;37365;-59
2022/09/24 08:25:06;;;;;;;15.23;2.67;;;14.30;99.90;;;;;;5114123;27;37243;-58
2022/09/24 08:27:35;;;;;;;12.30;2.10;;;14.30;99.90;;;;;;5114195;27;37524;-59
2022/09/24 08:30:05;;;;;;;11.48;2.00;;;14.30;99.90;;;;;;5114070;27;38055;-58
2022/09/24 08:32:32;;;;;;;19.15;2.80;;;14.30;99.90;;;;;;5114428;27;39161;-58
2022/09/24 08:35:00;;;;;;;12.23;2.53;;;14.30;99.90;;;;;;5114824;27;36778;-60
2022/09/24 08:37:27;;;;;;;12.02;2.25;;;14.40;99.90;;;;;;5114780;27;36420;-58
2022/09/24 08:39:55;;;;;;;9.73;1.63;;;14.40;99.90;;;;;;5114863;27;37697;-59
2022/09/24 08:42:31;;;;;;;11.05;1.75;;;14.40;99.90;;;;;;5114500;27;37394;-59
2022/09/24 08:47:53;;;;;;;12.20;1.92;;;14.40;99.90;;;;;;5115213;27;37799;-59
2022/09/24 08:50:24;;;;;;;12.75;2.28;;;14.40;99.90;;;;;;5114624;27;36814;-58
2022/09/24 08:53:12;;;;;;;9.85;2.60;;;14.50;99.90;;;;;;5114910;27;36770;-58
2022/09/24 08:55:43;;;;;;;12.68;1.80;;;14.40;99.90;;;;;;5115209;27;36504;-59
2022/09/24 08:58:30;;;;;;;14.55;1.83;;;14.50;99.90;;;;;;5113821;27;38013;-58
2022/09/24 09:01:04;;;;;;;12.82;2.15;;;14.50;99.90;;;;;;5114826;27;38532;-58
2022/09/24 09:03:37;;;;;;;13.45;2.08;;;14.50;99.90;;;;;;5114852;27;37306;-58
2022/09/24 09:06:12;;;;;;;11.65;1.83;;;14.50;99.90;;;;;;5114700;27;36462;-59
2022/09/24 09:08:49;;;;;;;12.80;2.00;;;14.60;99.90;;;;;;5114365;27;39120;-60
2022/09/24 09:11:21;;;;;;;11.27;1.58;;;14.50;99.90;;;;;;5114720;27;37481;-60
2022/09/24 09:13:54;;;;;;;8.77;1.50;;;14.60;99.90;;;;;;5114366;27;37237;-58
2022/09/24 09:16:25;;;;;;;9.77;1.40;;;14.50;99.90;;;;;;5114267;27;36638;-60
2022/09/24 09:18:59;;;;;;;9.20;1.55;;;14.60;99.90;;;;;;5114739;27;38159;-58
2022/09/24 09:21:31;;;;;;;7.68;1.50;;;14.60;99.90;;;;;;5114876;27;37565;-60
2022/09/24 09:24:01;;;;;;;9.07;2.30;;;14.60;99.90;;;;;;5114029;27;37377;-60
2022/09/24 09:26:28;;;;;;;11.55;2.25;;;14.60;99.90;;;;;;5114195;27;38560;-58
2022/09/24 09:28:59;;;;;;;8.25;1.38;;;14.60;99.90;;;;;;5113775;27;37701;-58
2022/09/24 09:31:35;;;;;;;8.90;1.48;;;14.60;99.90;;;;;;5113226;27;38355;-58
2022/09/24 09:34:27;;;;;;;12.07;1.73;;;14.60;99.90;;;;;;5113768;27;37290;-58
2022/09/24 09:37:04;;;;;;;6.32;1.38;;;14.60;99.90;;;;;;5113726;27;37251;-58
2022/09/24 09:39:38;;;;;;;9.23;1.40;;;14.60;99.90;;;;;;5114488;27;37486;-58
2022/09/24 09:42:26;;;;;;;6.45;1.33;;;14.60;99.90;;;;;;5113090;27;37743;-60
2022/09/24 09:44:54;;;;;;;13.20;2.00;;;14.60;99.90;;;;;;5112843;27;38124;-58
2022/09/24 09:47:31;;;;;;;8.57;1.80;;;14.60;99.90;;;;;;5113292;27;37792;-58
2022/09/24 09:50:05;;;;;;;6.95;1.45;;;14.70;99.90;;;;;;5113741;27;37641;-58
2022/09/24 09:52:37;;;;;;;8.45;1.23;;;14.70;99.90;;;;;;5112340;27;37045;-60
2022/09/24 09:55:05;;;;;;;8.23;1.85;;;14.80;99.90;;;;;;5115346;27;37194;-60
2022/09/24 09:57:35;;;;;;;10.27;2.03;;;14.80;99.90;;;;;;5117148;27;37187;-58
2022/09/24 10:00:03;;;;;;;6.38;1.45;;;14.80;99.90;;;;;;5116969;27;38748;-58
2022/09/24 10:02:33;;;;;;;9.35;1.30;;;14.80;99.90;;;;;;5117932;27;38629;-58
2022/09/24 10:05:05;;;;;;;10.15;1.65;;;14.90;99.90;;;;;;5116786;27;37294;-58
2022/09/24 10:07:43;;;;;;;7.28;1.50;;;14.80;99.90;;;;;;5117282;27;36320;-58
2022/09/24 10:10:18;;;;;;;6.38;0.98;;;14.90;99.90;;;;;;5117342;27;37398;-58
2022/09/24 10:12:46;;;;;;;8.30;2.20;;;14.90;99.90;;;;;;5117460;27;38923;-58
2022/09/24 10:15:18;;;;;;;8.63;1.75;;;14.80;99.90;;;;;;5117483;27;36338;-58
2022/09/24 10:17:49;;;;;;;10.20;1.58;;;14.80;99.90;;;;;;5116773;27;37322;-58
2022/09/24 10:20:21;;;;;;;12.23;2.17;;;14.80;99.90;;;;;;5117050;27;36335;-58
2022/09/24 10:22:51;;;;;;;14.05;2.30;;;14.80;99.90;;;;;;5116448;27;37798;-60
2022/09/24 10:25:25;;;;;;;7.60;2.00;;;14.80;99.90;;;;;;5116561;27;37612;-60
2022/09/24 10:30:32;;;;;;;12.90;1.98;;;14.80;99.90;;;;;;5116791;27;36579;-60
2022/09/24 10:30:52;;;;;;;7.13;1.42;;;14.90;99.90;;;;;;5116068;27;38203;-58
2022/09/24 10:33:20;;;;;;;6.05;1.00;;;14.90;99.90;;;;;;5117034;27;37679;-58
2022/09/24 10:35:50;;;;;;;7.05;1.60;;;14.90;99.90;;;;;;5116103;27;37386;-58
2022/09/24 10:38:19;;;;;;;8.95;1.45;;;14.90;99.90;;;;;;5117145;27;38657;-58
2022/09/24 10:40:47;;;;;;;6.72;2.10;;;14.90;99.90;;;;;;5116415;27;38259;-60
2022/09/24 10:43:19;;;;;;;6.53;1.70;;;14.90;99.90;;;;;;5116800;27;37557;-60
2022/09/24 10:46:08;;;;;;;9.98;1.88;;;14.90;99.90;;;;;;5116479;27;36787;-60
2022/09/24 10:48:43;;;;;;;3.90;1.25;;;14.90;99.90;;;;;;5116773;27;35332;-60
2022/09/24 10:51:22;;;;;;;7.60;1.38;;;14.90;99.90;;;;;;5116421;27;38541;-60
2022/09/24 10:53:58;;;;;;;9.43;1.70;;;14.90;99.90;;;;;;5116658;27;37682;-60
2022/09/24 10:56:33;;;;;;;5.57;1.63;;;14.90;99.90;;;;;;5117304;27;38155;-60
2022/09/24 10:59:21;;;;;;;8.85;1.92;;;14.90;99.90;;;;;;5116664;27;36544;-60
2022/09/24 11:01:58;;;;;;;7.53;1.45;;;14.80;99.90;;;;;;5116451;27;37546;-60
2022/09/24 11:04:53;;;;;;;6.28;1.42;;;14.80;99.90;;;;;;5116878;27;37878;-60
2022/09/24 11:07:51;;;;;;;7.20;1.45;;;14.80;99.90;;;;;;5110916;27;38114;-60
2022/09/24 11:10:38;;;;;;;11.18;2.10;;;14.80;99.90;;;;;;5114772;27;37634;-58
2022/09/24 11:13:15;;;;;;;7.57;1.08;;;14.80;99.90;;;;;;5102478;27;36928;-58
2022/09/24 11:16:08;;;;;;;9.35;1.33;;;14.80;99.90;;;;;;5116061;27;38103;-60
2022/09/24 11:18:46;;;;;;;5.40;0.88;;;14.70;99.90;;;;;;5115841;27;37363;-60
2022/09/24 11:21:29;;;;;;;9.27;1.90;;;14.70;99.90;;;;;;5115885;27;35311;-60
2022/09/24 11:24:18;;;;;;;6.78;1.23;;;14.70;99.90;;;;;;5115828;27;38162;-59
2022/09/24 11:27:00;;;;;;;10.48;2.38;;;14.70;99.90;;;;;;5115621;27;37796;-60
2022/09/24 11:29:45;;;;;;;11.70;2.42;;;14.70;99.90;;;;;;5115742;27;35662;-60
2022/09/24 11:32:21;;;;;;;9.02;1.83;;;14.70;99.90;;;;;;5115284;27;37552;-58
2022/09/24 11:35:07;;;;;;;10.00;1.67;;;14.70;99.90;;;;;;5115387;27;38764;-60
2022/09/24 11:37:48;;;;;;;8.57;1.35;;;14.70;99.90;;;;;;5115901;27;38566;-60
2022/09/24 11:40:32;;;;;;;6.75;1.38;;;14.70;99.90;;;;;;5116004;27;37199;-60
2022/09/24 11:43:17;;;;;;;7.50;1.35;;;14.70;99.90;;;;;;5116069;27;34516;-60
2022/09/24 11:45:54;;;;;;;9.57;1.38;;;14.70;99.90;;;;;;5116198;27;38700;-60
2022/09/24 11:48:44;;;;;;;9.65;1.40;;;14.80;99.90;;;;;;5115186;27;37751;-60
2022/09/24 11:51:21;;;;;;;8.00;1.65;;;14.70;99.90;;;;;;5113226;27;38076;-60
2022/09/24 11:53:54;;;;;;;8.07;2.97;;;14.70;99.90;;;;;;5115505;27;36542;-60
2022/09/24 11:56:28;;;;;;;8.60;1.38;;;14.70;99.90;;;;;;5115316;27;38159;-60
2022/09/24 11:58:59;;;;;;;6.18;1.20;;;14.70;99.90;;;;;;5116384;27;38806;-60
2022/09/24 12:01:29;;;;;;;6.78;1.25;;;14.80;99.90;;;;;;5115397;27;38331;-60
2022/09/24 12:04:02;;;;;;;4.40;0.70;;;14.80;99.90;;;;;;5115962;27;35943;-58
2022/09/24 12:06:35;;;;;;;5.13;0.65;;;14.80;99.90;;;;;;5115350;27;37606;-60
2022/09/24 12:09:14;;;;;;;4.07;0.80;;;14.90;99.90;;;;;;5115502;27;36458;-60
2022/09/24 12:11:47;;;;;;;7.18;1.10;;;14.90;99.90;;;;;;5115216;27;38207;-60
2022/09/24 12:14:19;;;;;;;6.40;1.48;;;14.90;99.90;;;;;;5115264;27;38420;-60
2022/09/24 12:16:49;;;;;;;5.18;1.40;;;15.00;99.90;;;;;;5114781;27;37713;-60
2022/09/24 12:19:21;;;;;;;8.88;1.50;;;15.00;99.90;;;;;;5115467;27;38930;-58
2022/09/24 12:21:51;;;;;;;8.00;1.90;;;15.00;99.90;;;;;;5114660;27;38121;-58
2022/09/24 12:24:27;;;;;;;8.90;1.92;;;15.10;99.90;;;;;;5115829;27;35740;-58
2022/09/24 12:26:59;;;;;;;10.75;2.35;;;15.10;99.90;;;;;;5114626;27;37386;-58
2022/09/24 12:32:55;;;;;;;7.15;1.50;;;15.10;99.90;;;;;;5115220;27;38454;-58
2022/09/24 12:35:32;;;;;;;8.13;1.92;;;15.10;99.90;;;;;;5115185;27;36422;-58
2022/09/24 12:38:05;;;;;;;4.10;0.95;;;15.00;99.90;;;;;;5115065;27;36509;-58
2022/09/24 12:41:14;;;;;;;3.88;0.77;;;15.00;99.90;;;;;;5114846;27;38303;-58
2022/09/24 12:43:47;;;;;;;4.50;1.08;;;15.00;99.90;;;;;;5115407;27;38456;-58
2022/09/24 12:46:18;;;;;;;7.28;0.90;;;15.00;99.90;;;;;;5113710;27;36947;-60
2022/09/24 12:48:48;;;;;;;5.10;1.20;;;15.00;99.90;;;;;;5114635;27;37477;-60
2022/09/24 12:51:21;;;;;;;7.90;1.60;;;15.00;99.90;;;;;;5115146;27;38471;-60
2022/09/24 12:53:58;;;;;;;6.70;1.05;;;15.00;99.90;;;;;;5113829;27;36201;-59
2022/09/24 12:56:28;;;;;;;12.18;1.38;;;15.00;99.90;;;;;;5114158;27;37474;-60
2022/09/24 12:58:57;;;;;;;7.75;0.85;;;14.90;99.90;;;;;;5114832;27;37362;-60
2022/09/24 13:01:31;;;;;;;8.82;1.45;;;14.90;99.90;;;;;;5114408;27;37803;-60
2022/09/24 13:04:25;;;;;;;3.95;0.98;;;14.90;99.90;;;;;;5115484;27;37743;-60
2022/09/24 13:06:52;;;;;;;;;;;14.90;99.90;;;;;;5115822;27;37394;-60
2022/09/24 13:09:40;;;;;;;8.52;1.35;;;14.80;99.90;;;;;;5115011;27;37925;-60